createdAt,value
2017-07-05T00:01:00.676Z,0
2017-07-05T00:02:00.372Z,0
2017-07-05T00:03:00.407Z,0
2017-07-05T00:04:00.525Z,0
2017-07-05T00:05:00.444Z,0
2017-07-05T00:06:00.902Z,0
2017-07-05T00:07:00.528Z,0
2017-07-05T00:08:00.842Z,0
2017-07-05T00:09:00.217Z,0
2017-07-05T00:10:00.670Z,0
2017-07-05T00:11:01.025Z,0
2017-07-05T00:12:00.616Z,0
2017-07-05T00:13:00.639Z,0
2017-07-05T00:14:03.975Z,0
2017-07-05T00:15:01.012Z,0
2017-07-05T00:16:01.152Z,0
2017-07-05T00:17:01.157Z,0
2017-07-05T00:18:01.313Z,0
2017-07-05T00:19:01.105Z,0
2017-07-05T00:20:00.807Z,0
2017-07-05T00:21:00.517Z,0
2017-07-05T00:22:00.634Z,0
2017-07-05T00:23:00.873Z,0
2017-07-05T00:24:01.279Z,0
2017-07-05T00:25:00.923Z,0
2017-07-05T00:26:00.951Z,0
2017-07-05T00:27:00.361Z,0
2017-07-05T00:28:01.321Z,0
2017-07-05T00:29:01.443Z,0
2017-07-05T00:30:00.827Z,0
2017-07-05T00:31:01.163Z,0
2017-07-05T00:32:00.773Z,0
2017-07-05T00:33:01.443Z,0
2017-07-05T00:34:01.152Z,0
2017-07-05T00:35:01.494Z,0
2017-07-05T00:36:01.743Z,0
2017-07-05T00:37:01.535Z,0
2017-07-05T00:38:01.237Z,0
2017-07-05T00:39:01.257Z,0
2017-07-05T00:40:01.615Z,0
2017-07-05T00:41:00.990Z,0
2017-07-05T00:42:01.495Z,0
2017-07-05T00:43:01.493Z,0
2017-07-05T00:44:01.491Z,0
2017-07-05T00:45:01.490Z,0
2017-07-05T00:46:01.437Z,0
2017-07-05T00:47:01.125Z,0
2017-07-05T00:48:01.802Z,0
2017-07-05T00:49:01.493Z,0
2017-07-05T00:50:01.675Z,0
2017-07-05T00:51:02.105Z,0
2017-07-05T00:52:01.737Z,0
2017-07-05T00:53:01.386Z,0
2017-07-05T00:54:02.040Z,0
2017-07-05T00:55:02.050Z,0
2017-07-05T00:56:02.081Z,0
2017-07-05T00:57:01.893Z,0
2017-07-05T00:58:01.897Z,0
2017-07-05T00:59:02.066Z,0
2017-07-05T01:00:02.088Z,0
2017-07-05T01:01:02.108Z,0
2017-07-05T01:02:01.624Z,0
2017-07-05T01:03:01.940Z,0
2017-07-05T01:04:01.973Z,0
2017-07-05T01:05:02.205Z,0
2017-07-05T01:06:01.655Z,0
2017-07-05T01:07:01.943Z,0
2017-07-05T01:08:01.953Z,0
2017-07-05T01:09:02.383Z,0
2017-07-05T01:10:01.678Z,0
2017-07-05T01:11:01.697Z,0
2017-07-05T01:12:02.048Z,0
2017-07-05T01:13:02.483Z,0
2017-07-05T01:14:02.098Z,0
2017-07-05T01:15:02.250Z,0
2017-07-05T01:16:01.961Z,0
2017-07-05T01:17:02.400Z,0
2017-07-05T01:18:01.951Z,0
2017-07-05T01:19:02.437Z,0
2017-07-05T01:20:02.783Z,0
2017-07-05T01:21:02.544Z,0
2017-07-05T01:22:02.485Z,0
2017-07-05T01:23:02.307Z,0
2017-07-05T01:24:02.335Z,0
2017-07-05T01:25:02.589Z,0
2017-07-05T01:26:02.390Z,0
2017-07-05T01:27:02.400Z,0
2017-07-05T01:28:02.753Z,0
2017-07-05T01:29:02.458Z,0
2017-07-05T01:30:02.805Z,0
2017-07-05T01:31:02.930Z,0
2017-07-05T01:32:02.451Z,0
2017-07-05T01:33:02.547Z,0
2017-07-05T01:34:02.655Z,0
2017-07-05T01:35:02.810Z,0
2017-07-05T01:36:02.915Z,0
2017-07-05T01:37:02.066Z,0
2017-07-05T01:38:02.341Z,0
2017-07-05T01:39:03.011Z,0
2017-07-05T01:40:02.719Z,0
2017-07-05T01:41:03.053Z,0
2017-07-05T01:42:02.755Z,0
2017-07-05T01:43:02.796Z,0
2017-07-05T01:44:02.673Z,0
2017-07-05T01:45:03.149Z,0
2017-07-05T01:46:03.182Z,0
2017-07-05T01:47:03.206Z,0
2017-07-05T01:48:02.922Z,0
2017-07-05T01:49:03.245Z,0
2017-07-05T01:50:03.275Z,0
2017-07-05T01:51:02.968Z,0
2017-07-05T01:52:03.017Z,0
2017-07-05T01:53:03.457Z,0
2017-07-05T01:54:02.760Z,0
2017-07-05T01:55:03.057Z,0
2017-07-05T01:56:03.101Z,0
2017-07-05T01:57:03.108Z,0
2017-07-05T01:58:03.254Z,0
2017-07-05T01:59:03.248Z,0
2017-07-05T02:00:03.291Z,0
2017-07-05T02:01:02.874Z,0
2017-07-05T02:02:03.564Z,0
2017-07-05T02:03:03.332Z,0
2017-07-05T02:04:03.370Z,0
2017-07-05T02:05:03.293Z,0
2017-07-05T02:06:03.139Z,0
2017-07-05T02:07:03.736Z,0
2017-07-05T02:08:03.447Z,0
2017-07-05T02:09:03.711Z,0
2017-07-05T02:10:03.525Z,0
2017-07-05T02:11:03.763Z,0
2017-07-05T02:12:03.786Z,0
2017-07-05T02:13:03.480Z,0
2017-07-05T02:14:03.757Z,0
2017-07-05T02:15:03.859Z,0
2017-07-05T02:16:03.448Z,0
2017-07-05T02:17:03.615Z,0
2017-07-05T02:18:04.122Z,0
2017-07-05T02:19:03.968Z,0
2017-07-05T02:20:03.978Z,0
2017-07-05T02:21:03.668Z,0
2017-07-05T02:22:04.016Z,0
2017-07-05T02:23:03.715Z,0
2017-07-05T02:24:04.064Z,0
2017-07-05T02:25:03.477Z,0
2017-07-05T02:26:03.788Z,0
2017-07-05T02:27:03.807Z,0
2017-07-05T02:28:03.902Z,0
2017-07-05T02:29:03.860Z,0
2017-07-05T02:30:04.203Z,0
2017-07-05T02:31:03.588Z,0
2017-07-05T02:32:03.935Z,0
2017-07-05T02:33:35.460Z,0
2017-07-05T02:34:03.992Z,0
2017-07-05T02:35:04.000Z,0
2017-07-05T02:36:04.332Z,0
2017-07-05T02:37:04.047Z,0
2017-07-05T02:38:04.384Z,4
2017-07-05T02:39:03.764Z,4
2017-07-05T02:40:03.789Z,4
2017-07-05T02:41:04.130Z,4
2017-07-05T02:42:03.836Z,0
2017-07-05T02:43:03.527Z,4
2017-07-05T02:44:04.533Z,4
2017-07-05T02:45:04.557Z,4
2017-07-05T02:46:03.923Z,4
2017-07-05T02:47:04.269Z,8
2017-07-05T02:48:03.643Z,4
2017-07-05T02:49:04.312Z,8
2017-07-05T02:50:04.015Z,8
2017-07-05T02:51:04.039Z,8
2017-07-05T02:52:04.063Z,8
2017-07-05T02:53:04.413Z,8
2017-07-05T02:54:04.427Z,12
2017-07-05T02:55:04.473Z,12
2017-07-05T02:56:04.156Z,12
2017-07-05T02:57:04.174Z,16
2017-07-05T02:58:04.653Z,16
2017-07-05T02:59:04.637Z,20
2017-07-05T03:00:05.020Z,20
2017-07-05T03:01:04.817Z,20
2017-07-05T03:02:04.689Z,24
2017-07-05T03:03:04.827Z,24
2017-07-05T03:04:04.840Z,24
2017-07-05T03:05:04.687Z,28
2017-07-05T03:06:04.382Z,24
2017-07-05T03:07:04.734Z,28
2017-07-05T03:08:05.193Z,28
2017-07-05T03:09:04.775Z,32
2017-07-05T03:10:04.793Z,36
2017-07-05T03:11:04.498Z,32
2017-07-05T03:12:04.849Z,36
2017-07-05T03:13:04.870Z,32
2017-07-05T03:14:04.890Z,28
2017-07-05T03:15:04.590Z,32
2017-07-05T03:16:04.938Z,28
2017-07-05T03:17:04.639Z,28
2017-07-05T03:18:05.363Z,32
2017-07-05T03:19:04.677Z,32
2017-07-05T03:20:04.395Z,36
2017-07-05T03:21:04.728Z,36
2017-07-05T03:22:04.425Z,44
2017-07-05T03:23:04.448Z,52
2017-07-05T03:24:04.793Z,60
2017-07-05T03:25:05.150Z,60
2017-07-05T03:26:05.268Z,64
2017-07-05T03:27:05.186Z,68
2017-07-05T03:28:05.534Z,68
2017-07-05T03:29:05.557Z,72
2017-07-05T03:30:04.931Z,84
2017-07-05T03:31:05.361Z,92
2017-07-05T03:32:05.360Z,84
2017-07-05T03:33:05.649Z,84
2017-07-05T03:34:04.704Z,84
2017-07-05T03:35:05.689Z,96
2017-07-05T03:36:05.089Z,100
2017-07-05T03:37:05.413Z,100
2017-07-05T03:38:05.715Z,108
2017-07-05T03:39:05.467Z,120
2017-07-05T03:40:05.170Z,124
2017-07-05T03:41:05.183Z,132
2017-07-05T03:42:05.858Z,148
2017-07-05T03:43:05.551Z,160
2017-07-05T03:44:05.595Z,176
2017-07-05T03:45:05.514Z,184
2017-07-05T03:46:05.631Z,180
2017-07-05T03:47:05.323Z,176
2017-07-05T03:48:05.708Z,172
2017-07-05T03:49:06.012Z,168
2017-07-05T03:50:05.812Z,160
2017-07-05T03:51:05.740Z,136
2017-07-05T03:52:05.449Z,120
2017-07-05T03:53:05.452Z,104
2017-07-05T03:54:05.819Z,96
2017-07-05T03:55:05.501Z,96
2017-07-05T03:56:05.585Z,120
2017-07-05T03:57:05.871Z,152
2017-07-05T03:58:05.897Z,152
2017-07-05T03:59:05.923Z,176
2017-07-05T04:00:05.628Z,188
2017-07-05T04:01:06.301Z,196
2017-07-05T04:02:05.742Z,200
2017-07-05T04:03:05.675Z,220
2017-07-05T04:04:05.712Z,244
2017-07-05T04:05:05.405Z,252
2017-07-05T04:06:06.394Z,260
2017-07-05T04:07:05.768Z,276
2017-07-05T04:08:05.819Z,312
2017-07-05T04:09:06.466Z,344
2017-07-05T04:10:05.936Z,340
2017-07-05T04:11:06.186Z,328
2017-07-05T04:12:06.325Z,336
2017-07-05T04:13:05.905Z,344
2017-07-05T04:14:06.297Z,356
2017-07-05T04:15:06.598Z,332
2017-07-05T04:16:06.300Z,280
2017-07-05T04:17:06.503Z,272
2017-07-05T04:18:06.444Z,268
2017-07-05T04:19:06.758Z,308
2017-07-05T04:20:06.413Z,356
2017-07-05T04:21:06.414Z,424
2017-07-05T04:22:06.760Z,444
2017-07-05T04:23:06.129Z,436
2017-07-05T04:24:06.157Z,360
2017-07-05T04:25:06.296Z,340
2017-07-05T04:26:06.531Z,308
2017-07-05T04:27:06.545Z,244
2017-07-05T04:28:06.244Z,236
2017-07-05T04:29:06.914Z,224
2017-07-05T04:30:06.452Z,216
2017-07-05T04:31:06.739Z,208
2017-07-05T04:32:06.431Z,200
2017-07-05T04:33:06.689Z,196
2017-07-05T04:34:06.728Z,188
2017-07-05T04:35:07.056Z,180
2017-07-05T04:36:06.748Z,176
2017-07-05T04:37:06.336Z,184
2017-07-05T04:38:06.825Z,188
2017-07-05T04:39:06.628Z,208
2017-07-05T04:40:06.843Z,220
2017-07-05T04:41:06.540Z,224
2017-07-05T04:42:07.215Z,248
2017-07-05T04:43:06.912Z,296
2017-07-05T04:44:06.929Z,380
2017-07-05T04:45:06.755Z,424
2017-07-05T04:46:07.071Z,484
2017-07-05T04:47:07.546Z,532
2017-07-05T04:48:07.522Z,568
2017-07-05T04:49:07.046Z,560
2017-07-05T04:50:06.746Z,544
2017-07-05T04:51:07.411Z,524
2017-07-05T04:52:07.198Z,520
2017-07-05T04:53:07.206Z,548
2017-07-05T04:54:07.205Z,584
2017-07-05T04:55:06.533Z,596
2017-07-05T04:56:06.886Z,584
2017-07-05T04:57:06.576Z,600
2017-07-05T04:58:07.603Z,588
2017-07-05T04:59:07.098Z,596
2017-07-05T05:00:06.969Z,624
2017-07-05T05:01:07.309Z,632
2017-07-05T05:02:07.348Z,612
2017-07-05T05:03:07.685Z,604
2017-07-05T05:04:07.390Z,580
2017-07-05T05:05:07.089Z,576
2017-07-05T05:06:07.512Z,592
2017-07-05T05:07:07.894Z,612
2017-07-05T05:08:07.168Z,652
2017-07-05T05:09:07.495Z,684
2017-07-05T05:10:07.523Z,732
2017-07-05T05:11:07.223Z,788
2017-07-05T05:12:07.242Z,812
2017-07-05T05:13:07.915Z,828
2017-07-05T05:14:07.622Z,816
2017-07-05T05:15:07.317Z,816
2017-07-05T05:16:07.024Z,780
2017-07-05T05:17:07.361Z,716
2017-07-05T05:18:07.059Z,656
2017-07-05T05:19:07.404Z,628
2017-07-05T05:20:07.126Z,648
2017-07-05T05:21:07.773Z,676
2017-07-05T05:22:07.825Z,712
2017-07-05T05:23:07.816Z,696
2017-07-05T05:24:07.516Z,724
2017-07-05T05:25:07.555Z,828
2017-07-05T05:26:07.577Z,944
2017-07-05T05:27:07.903Z,860
2017-07-05T05:28:07.944Z,740
2017-07-05T05:29:07.626Z,776
2017-07-05T05:30:07.668Z,756
2017-07-05T05:31:08.122Z,744
2017-07-05T05:32:08.035Z,728
2017-07-05T05:33:07.490Z,712
2017-07-05T05:34:08.132Z,760
2017-07-05T05:35:07.780Z,784
2017-07-05T05:36:08.122Z,844
2017-07-05T05:37:07.823Z,960
2017-07-05T05:38:07.838Z,1056
2017-07-05T05:39:08.563Z,1084
2017-07-05T05:40:08.236Z,984
2017-07-05T05:41:07.903Z,908
2017-07-05T05:42:07.977Z,864
2017-07-05T05:43:08.274Z,788
2017-07-05T05:44:08.632Z,732
2017-07-05T05:45:08.012Z,684
2017-07-05T05:46:08.059Z,672
2017-07-05T05:47:08.367Z,680
2017-07-05T05:48:08.086Z,708
2017-07-05T05:49:08.283Z,784
2017-07-05T05:50:08.108Z,892
2017-07-05T05:51:08.132Z,912
2017-07-05T05:52:08.485Z,956
2017-07-05T05:53:08.181Z,1020
2017-07-05T05:54:07.875Z,1012
2017-07-05T05:55:08.551Z,916
2017-07-05T05:56:08.599Z,912
2017-07-05T05:57:08.719Z,948
2017-07-05T05:58:08.289Z,996
2017-07-05T05:59:08.635Z,1088
2017-07-05T06:00:08.016Z,1188
2017-07-05T06:01:08.358Z,1124
2017-07-05T06:02:09.031Z,1012
2017-07-05T06:03:08.409Z,968
2017-07-05T06:04:09.075Z,1036
2017-07-05T06:05:08.776Z,1136
2017-07-05T06:06:08.805Z,1220
2017-07-05T06:07:08.833Z,1100
2017-07-05T06:08:08.852Z,1064
2017-07-05T06:09:08.546Z,1060
2017-07-05T06:10:08.899Z,984
2017-07-05T06:11:08.595Z,860
2017-07-05T06:12:08.945Z,972
2017-07-05T06:13:09.306Z,1140
2017-07-05T06:14:09.307Z,1220
2017-07-05T06:15:08.680Z,1308
2017-07-05T06:16:09.357Z,1320
2017-07-05T06:17:08.405Z,1216
2017-07-05T06:18:09.079Z,1276
2017-07-05T06:19:09.109Z,1256
2017-07-05T06:20:09.129Z,1140
2017-07-05T06:21:09.151Z,1076
2017-07-05T06:22:09.166Z,1088
2017-07-05T06:23:09.195Z,1068
2017-07-05T06:24:09.542Z,1112
2017-07-05T06:25:09.248Z,1152
2017-07-05T06:26:08.938Z,1100
2017-07-05T06:27:09.626Z,1032
2017-07-05T06:28:09.388Z,956
2017-07-05T06:29:09.335Z,920
2017-07-05T06:30:09.036Z,784
2017-07-05T06:31:09.387Z,616
2017-07-05T06:32:09.405Z,600
2017-07-05T06:33:09.422Z,676
2017-07-05T06:34:09.445Z,832
2017-07-05T06:35:09.470Z,940
2017-07-05T06:36:09.499Z,976
2017-07-05T06:37:09.516Z,964
2017-07-05T06:38:09.542Z,968
2017-07-05T06:39:09.893Z,948
2017-07-05T06:40:09.601Z,860
2017-07-05T06:41:09.290Z,772
2017-07-05T06:42:08.987Z,732
2017-07-05T06:43:09.656Z,848
2017-07-05T06:44:10.013Z,1044
2017-07-05T06:45:10.038Z,1148
2017-07-05T06:46:09.402Z,1316
2017-07-05T06:47:09.764Z,1460
2017-07-05T06:48:09.776Z,1524
2017-07-05T06:49:09.477Z,1340
2017-07-05T06:50:10.150Z,1200
2017-07-05T06:51:10.184Z,1096
2017-07-05T06:52:10.200Z,928
2017-07-05T06:53:09.573Z,1016
2017-07-05T06:54:10.244Z,1332
2017-07-05T06:55:09.624Z,1596
2017-07-05T06:56:09.720Z,1584
2017-07-05T06:57:09.667Z,1624
2017-07-05T06:58:09.370Z,1252
2017-07-05T06:59:10.116Z,1112
2017-07-05T07:00:09.734Z,1016
2017-07-05T07:01:10.449Z,1064
2017-07-05T07:02:10.172Z,1112
2017-07-05T07:03:10.169Z,1160
2017-07-05T07:04:10.484Z,1336
2017-07-05T07:05:10.177Z,1572
2017-07-05T07:06:10.008Z,1680
2017-07-05T07:07:09.581Z,1392
2017-07-05T07:08:10.325Z,1088
2017-07-05T07:09:10.284Z,968
2017-07-05T07:10:10.305Z,1152
2017-07-05T07:11:09.997Z,1524
2017-07-05T07:12:10.669Z,1568
2017-07-05T07:13:10.699Z,1396
2017-07-05T07:14:10.074Z,1296
2017-07-05T07:15:10.420Z,1144
2017-07-05T07:16:10.444Z,952
2017-07-05T07:17:10.460Z,856
2017-07-05T07:18:10.807Z,812
2017-07-05T07:19:09.867Z,800
2017-07-05T07:20:10.232Z,812
2017-07-05T07:21:10.884Z,840
2017-07-05T07:22:09.937Z,812
2017-07-05T07:23:10.286Z,768
2017-07-05T07:24:10.306Z,736
2017-07-05T07:25:10.651Z,856
2017-07-05T07:26:10.027Z,1068
2017-07-05T07:27:10.377Z,1440
2017-07-05T07:28:10.726Z,1632
2017-07-05T07:29:10.429Z,1328
2017-07-05T07:30:10.776Z,1288
2017-07-05T07:31:10.477Z,1512
2017-07-05T07:32:10.825Z,1812
2017-07-05T07:33:11.167Z,2096
2017-07-05T07:34:10.551Z,2032
2017-07-05T07:35:10.566Z,1844
2017-07-05T07:36:10.923Z,1644
2017-07-05T07:37:10.619Z,1512
2017-07-05T07:38:11.290Z,1540
2017-07-05T07:39:11.317Z,1436
2017-07-05T07:40:10.363Z,1276
2017-07-05T07:41:11.366Z,1052
2017-07-05T07:42:11.390Z,904
2017-07-05T07:43:11.410Z,832
2017-07-05T07:44:11.447Z,788
2017-07-05T07:45:10.816Z,704
2017-07-05T07:46:11.160Z,736
2017-07-05T07:47:10.857Z,940
2017-07-05T07:48:10.882Z,1176
2017-07-05T07:49:10.911Z,1188
2017-07-05T07:50:11.575Z,1052
2017-07-05T07:51:11.603Z,944
2017-07-05T07:52:11.307Z,1040
2017-07-05T07:53:11.363Z,1276
2017-07-05T07:54:10.706Z,1424
2017-07-05T07:55:11.058Z,1568
2017-07-05T07:56:11.404Z,1624
2017-07-05T07:57:11.425Z,1488
2017-07-05T07:58:11.568Z,1572
2017-07-05T07:59:11.151Z,1540
2017-07-05T08:00:11.499Z,1444
2017-07-05T08:01:11.197Z,1348
2017-07-05T08:02:11.553Z,1244
2017-07-05T08:03:11.575Z,1292
2017-07-05T08:04:11.922Z,1456
2017-07-05T08:05:11.405Z,1544
2017-07-05T08:06:11.326Z,1456
2017-07-05T08:07:11.988Z,1376
2017-07-05T08:08:12.020Z,1380
2017-07-05T08:09:12.058Z,1560
2017-07-05T08:10:11.877Z,1880
2017-07-05T08:11:11.784Z,2216
2017-07-05T08:12:11.467Z,2228
2017-07-05T08:13:11.494Z,2044
2017-07-05T08:14:11.516Z,2076
2017-07-05T08:15:11.975Z,2548
2017-07-05T08:16:11.563Z,2708
2017-07-05T08:17:11.909Z,2604
2017-07-05T08:18:11.933Z,2400
2017-07-05T08:19:11.957Z,2312
2017-07-05T08:20:11.983Z,2240
2017-07-05T08:21:12.018Z,2176
2017-07-05T08:22:11.488Z,2348
2017-07-05T08:23:11.841Z,2568
2017-07-05T08:24:11.850Z,2428
2017-07-05T08:25:12.113Z,2452
2017-07-05T08:26:12.248Z,2604
2017-07-05T08:27:12.166Z,2744
2017-07-05T08:28:12.182Z,2784
2017-07-05T08:29:12.603Z,2828
2017-07-05T08:30:11.914Z,2876
2017-07-05T08:31:11.934Z,2980
2017-07-05T08:32:12.608Z,3060
2017-07-05T08:33:12.354Z,3032
2017-07-05T08:34:11.796Z,2996
2017-07-05T08:35:12.358Z,2936
2017-07-05T08:36:12.527Z,2964
2017-07-05T08:37:12.412Z,2884
2017-07-05T08:38:12.110Z,2756
2017-07-05T08:39:12.455Z,2668
2017-07-05T08:40:12.156Z,2688
2017-07-05T08:41:11.856Z,2792
2017-07-05T08:42:12.209Z,2900
2017-07-05T08:43:12.238Z,2944
2017-07-05T08:44:12.668Z,2972
2017-07-05T08:45:12.604Z,2992
2017-07-05T08:46:12.309Z,2988
2017-07-05T08:47:12.654Z,3024
2017-07-05T08:48:13.006Z,3048
2017-07-05T08:49:12.704Z,3028
2017-07-05T08:50:12.411Z,3024
2017-07-05T08:51:12.982Z,3040
2017-07-05T08:52:12.133Z,3040
2017-07-05T08:53:13.333Z,2972
2017-07-05T08:54:12.828Z,2808
2017-07-05T08:55:12.558Z,2676
2017-07-05T08:56:12.565Z,2528
2017-07-05T08:57:12.585Z,2464
2017-07-05T08:58:13.028Z,2480
2017-07-05T08:59:12.726Z,2820
2017-07-05T09:00:12.456Z,3144
2017-07-05T09:01:12.819Z,3192
2017-07-05T09:02:13.361Z,3128
2017-07-05T09:03:12.737Z,3224
2017-07-05T09:04:13.087Z,3272
2017-07-05T09:05:13.237Z,3400
2017-07-05T09:06:12.808Z,3320
2017-07-05T09:07:13.341Z,3232
2017-07-05T09:08:13.516Z,3196
2017-07-05T09:09:13.215Z,3180
2017-07-05T09:10:13.239Z,3136
2017-07-05T09:11:12.618Z,3144
2017-07-05T09:12:13.618Z,3096
2017-07-05T09:13:13.322Z,3152
2017-07-05T09:14:12.694Z,3236
2017-07-05T09:15:13.704Z,3336
2017-07-05T09:16:13.744Z,3444
2017-07-05T09:17:13.753Z,3300
2017-07-05T09:18:13.449Z,3032
2017-07-05T09:19:13.480Z,2840
2017-07-05T09:20:13.177Z,2732
2017-07-05T09:21:13.853Z,2548
2017-07-05T09:22:12.903Z,2832
2017-07-05T09:23:12.933Z,2360
2017-07-05T09:24:13.611Z,2492
2017-07-05T09:25:13.636Z,2300
2017-07-05T09:26:13.661Z,2316
2017-07-05T09:27:13.095Z,2416
2017-07-05T09:28:14.038Z,2248
2017-07-05T09:29:14.064Z,2148
2017-07-05T09:30:13.761Z,1832
2017-07-05T09:31:14.113Z,1340
2017-07-05T09:32:13.818Z,1352
2017-07-05T09:33:13.838Z,1356
2017-07-05T09:34:13.864Z,1536
2017-07-05T09:35:13.897Z,2040
2017-07-05T09:36:13.930Z,2188
2017-07-05T09:37:13.625Z,2208
2017-07-05T09:38:13.978Z,2132
2017-07-05T09:39:14.323Z,2064
2017-07-05T09:40:14.353Z,1992
2017-07-05T09:41:14.062Z,1996
2017-07-05T09:42:14.402Z,1964
2017-07-05T09:43:13.781Z,1924
2017-07-05T09:44:13.802Z,1980
2017-07-05T09:45:14.491Z,1988
2017-07-05T09:46:14.517Z,1904
2017-07-05T09:47:14.208Z,1940
2017-07-05T09:48:14.335Z,1936
2017-07-05T09:49:13.944Z,1960
2017-07-05T09:50:13.967Z,1920
2017-07-05T09:51:13.993Z,1904
2017-07-05T09:52:14.021Z,1940
2017-07-05T09:53:14.493Z,1944
2017-07-05T09:54:14.716Z,2044
2017-07-05T09:55:14.106Z,2212
2017-07-05T09:56:14.656Z,2192
2017-07-05T09:57:14.204Z,1900
2017-07-05T09:58:14.184Z,2328
2017-07-05T09:59:13.943Z,2256
2017-07-05T10:00:15.008Z,2596
2017-07-05T10:01:14.793Z,3100
2017-07-05T10:02:14.413Z,3260
2017-07-05T10:03:14.638Z,3144
2017-07-05T10:04:14.546Z,3348
2017-07-05T10:05:14.698Z,3312
2017-07-05T10:06:15.045Z,3780
2017-07-05T10:07:14.422Z,3436
2017-07-05T10:08:15.105Z,3440
2017-07-05T10:09:15.126Z,3928
2017-07-05T10:10:14.693Z,4212
2017-07-05T10:11:15.293Z,3832
2017-07-05T10:12:14.349Z,4668
2017-07-05T10:13:15.287Z,4616
2017-07-05T10:14:15.263Z,4780
2017-07-05T10:15:14.972Z,4916
2017-07-05T10:16:15.445Z,4452
2017-07-05T10:17:15.346Z,4824
2017-07-05T10:18:14.731Z,4620
2017-07-05T10:19:14.757Z,4416
2017-07-05T10:20:15.152Z,3740
2017-07-05T10:21:15.472Z,3896
2017-07-05T10:22:14.518Z,4296
2017-07-05T10:23:14.861Z,4568
2017-07-05T10:24:15.343Z,4468
2017-07-05T10:25:15.385Z,4272
2017-07-05T10:26:15.394Z,4172
2017-07-05T10:27:15.308Z,4268
2017-07-05T10:28:15.335Z,4056
2017-07-05T10:29:15.755Z,4028
2017-07-05T10:30:15.284Z,4148
2017-07-05T10:31:15.095Z,4572
2017-07-05T10:32:15.446Z,4704
2017-07-05T10:33:15.152Z,5416
2017-07-05T10:34:15.508Z,4880
2017-07-05T10:35:14.890Z,3640
2017-07-05T10:36:15.334Z,3356
2017-07-05T10:37:15.922Z,3220
2017-07-05T10:38:15.736Z,3648
2017-07-05T10:39:15.329Z,2984
2017-07-05T10:40:15.683Z,2808
2017-07-05T10:41:16.049Z,2808
2017-07-05T10:42:16.057Z,2772
2017-07-05T10:43:16.237Z,3020
2017-07-05T10:44:15.799Z,3180
2017-07-05T10:45:15.879Z,2664
2017-07-05T10:46:15.529Z,2408
2017-07-05T10:47:15.887Z,2456
2017-07-05T10:48:15.916Z,2568
2017-07-05T10:49:15.938Z,2396
2017-07-05T10:50:15.645Z,2448
2017-07-05T10:51:16.004Z,2752
2017-07-05T10:52:16.039Z,2772
2017-07-05T10:53:16.062Z,2556
2017-07-05T10:54:16.417Z,2380
2017-07-05T10:55:16.125Z,2720
2017-07-05T10:56:16.146Z,3604
2017-07-05T10:57:16.365Z,3848
2017-07-05T10:58:16.212Z,3408
2017-07-05T10:59:15.917Z,3284
2017-07-05T11:00:16.597Z,3296
2017-07-05T11:01:16.341Z,3572
2017-07-05T11:02:16.122Z,3696
2017-07-05T11:03:16.032Z,3700
2017-07-05T11:04:16.070Z,3832
2017-07-05T11:05:16.088Z,3672
2017-07-05T11:06:16.450Z,3692
2017-07-05T11:07:16.885Z,3564
2017-07-05T11:08:16.609Z,3412
2017-07-05T11:09:16.864Z,3584
2017-07-05T11:10:16.903Z,3672
2017-07-05T11:11:16.919Z,3896
2017-07-05T11:12:16.627Z,3664
2017-07-05T11:13:16.336Z,3488
2017-07-05T11:14:16.736Z,3788
2017-07-05T11:15:16.392Z,3940
2017-07-05T11:16:16.746Z,4440
2017-07-05T11:17:16.135Z,4640
2017-07-05T11:18:17.166Z,2848
2017-07-05T11:19:16.511Z,2308
2017-07-05T11:20:16.541Z,2228
2017-07-05T11:21:16.900Z,2628
2017-07-05T11:22:16.302Z,3224
2017-07-05T11:23:17.348Z,3440
2017-07-05T11:24:16.678Z,3464
2017-07-05T11:25:17.347Z,4176
2017-07-05T11:26:16.729Z,6188
2017-07-05T11:27:17.085Z,4588
2017-07-05T11:28:17.112Z,4384
2017-07-05T11:29:17.255Z,3736
2017-07-05T11:30:17.274Z,4076
2017-07-05T11:31:16.551Z,3848
2017-07-05T11:32:17.554Z,4028
2017-07-05T11:33:17.736Z,3628
2017-07-05T11:34:17.415Z,4068
2017-07-05T11:35:17.089Z,4424
2017-07-05T11:36:17.344Z,4660
2017-07-05T11:37:17.716Z,5680
2017-07-05T11:38:17.800Z,5296
2017-07-05T11:39:17.445Z,4856
2017-07-05T11:40:17.146Z,4952
2017-07-05T11:41:17.506Z,5108
2017-07-05T11:42:17.735Z,4904
2017-07-05T11:43:17.567Z,4640
2017-07-05T11:44:17.608Z,5428
2017-07-05T11:45:17.309Z,4552
2017-07-05T11:46:17.977Z,4432
2017-07-05T11:47:17.366Z,4608
2017-07-05T11:48:18.051Z,4748
2017-07-05T11:49:17.540Z,4732
2017-07-05T11:50:17.844Z,3976
2017-07-05T11:51:18.216Z,3596
2017-07-05T11:52:17.914Z,3876
2017-07-05T11:53:17.586Z,4444
2017-07-05T11:54:17.589Z,4376
2017-07-05T11:55:17.697Z,4228
2017-07-05T11:56:17.640Z,3824
2017-07-05T11:57:17.997Z,4524
2017-07-05T11:58:17.707Z,4464
2017-07-05T11:59:18.200Z,4592
2017-07-05T12:00:18.196Z,4176
2017-07-05T12:01:17.799Z,4308
2017-07-05T12:02:18.240Z,4860
2017-07-05T12:03:17.978Z,3912
2017-07-05T12:04:17.967Z,3360
2017-07-05T12:05:18.039Z,4524
2017-07-05T12:06:18.279Z,4952
2017-07-05T12:07:18.435Z,5856
2017-07-05T12:08:18.662Z,4868
2017-07-05T12:09:18.363Z,6916
2017-07-05T12:10:18.413Z,6444
2017-07-05T12:11:18.112Z,4140
2017-07-05T12:12:18.527Z,5400
2017-07-05T12:13:18.525Z,5664
2017-07-05T12:14:18.201Z,4152
2017-07-05T12:15:18.561Z,5064
2017-07-05T12:16:18.915Z,4296
2017-07-05T12:17:17.971Z,4956
2017-07-05T12:18:18.791Z,5140
2017-07-05T12:19:19.008Z,5136
2017-07-05T12:20:18.397Z,6196
2017-07-05T12:21:19.087Z,5088
2017-07-05T12:22:18.129Z,4916
2017-07-05T12:23:18.483Z,5000
2017-07-05T12:24:18.839Z,4988
2017-07-05T12:25:19.197Z,5384
2017-07-05T12:26:18.263Z,5948
2017-07-05T12:27:18.936Z,4416
2017-07-05T12:28:18.683Z,5008
2017-07-05T12:29:19.327Z,6220
2017-07-05T12:30:19.365Z,5472
2017-07-05T12:31:19.179Z,4960
2017-07-05T12:32:19.216Z,4840
2017-07-05T12:33:18.479Z,4896
2017-07-05T12:34:18.838Z,4764
2017-07-05T12:35:19.194Z,4220
2017-07-05T12:36:18.909Z,4488
2017-07-05T12:37:19.261Z,4520
2017-07-05T12:38:19.291Z,4500
2017-07-05T12:39:19.390Z,4560
2017-07-05T12:40:19.150Z,4548
2017-07-05T12:41:19.385Z,4548
2017-07-05T12:42:19.740Z,4544
2017-07-05T12:43:19.454Z,4596
2017-07-05T12:44:19.487Z,4584
2017-07-05T12:45:19.193Z,4656
2017-07-05T12:46:19.551Z,4636
2017-07-05T12:47:19.687Z,4640
2017-07-05T12:48:19.613Z,4716
2017-07-05T12:49:20.053Z,4720
2017-07-05T12:50:19.673Z,4740
2017-07-05T12:51:20.042Z,4776
2017-07-05T12:52:19.422Z,4768
2017-07-05T12:53:19.469Z,4772
2017-07-05T12:54:19.812Z,4756
2017-07-05T12:55:19.841Z,4748
2017-07-05T12:56:19.232Z,4748
2017-07-05T12:57:20.354Z,4732
2017-07-05T12:58:20.495Z,4768
2017-07-05T12:59:20.072Z,4804
2017-07-05T13:00:20.186Z,4852
2017-07-05T13:01:20.494Z,4924
2017-07-05T13:02:20.508Z,4924
2017-07-05T13:03:19.790Z,4884
2017-07-05T13:04:20.641Z,4960
2017-07-05T13:05:19.999Z,5164
2017-07-05T13:06:20.317Z,5456
2017-07-05T13:07:20.325Z,5516
2017-07-05T13:08:20.391Z,5524
2017-07-05T13:09:20.727Z,5252
2017-07-05T13:10:20.816Z,4856
2017-07-05T13:11:20.061Z,5220
2017-07-05T13:12:20.747Z,4720
2017-07-05T13:13:20.438Z,5144
2017-07-05T13:14:20.800Z,5188
2017-07-05T13:15:20.839Z,5220
2017-07-05T13:16:20.214Z,4288
2017-07-05T13:17:20.246Z,3640
2017-07-05T13:18:20.611Z,2560
2017-07-05T13:19:20.710Z,2456
2017-07-05T13:20:20.826Z,2732
2017-07-05T13:21:20.834Z,5304
2017-07-05T13:22:20.504Z,5300
2017-07-05T13:23:20.868Z,5204
2017-07-05T13:24:20.810Z,5396
2017-07-05T13:25:20.843Z,5464
2017-07-05T13:26:20.875Z,5452
2017-07-05T13:27:20.912Z,5500
2017-07-05T13:28:20.953Z,5560
2017-07-05T13:29:20.974Z,5604
2017-07-05T13:30:21.108Z,5576
2017-07-05T13:31:21.579Z,5544
2017-07-05T13:32:21.579Z,5496
2017-07-05T13:33:20.792Z,5500
2017-07-05T13:34:20.940Z,5484
2017-07-05T13:35:21.583Z,5548
2017-07-05T13:36:21.622Z,5544
2017-07-05T13:37:21.322Z,5620
2017-07-05T13:38:21.448Z,5636
2017-07-05T13:39:20.814Z,5668
2017-07-05T13:40:21.362Z,5360
2017-07-05T13:41:21.393Z,5788
2017-07-05T13:42:21.424Z,5848
2017-07-05T13:43:21.136Z,5832
2017-07-05T13:44:22.065Z,5804
2017-07-05T13:45:20.875Z,5868